sensor_id;sensor_type;location;lat;lon;timestamp;pressure;altitude;pressure_sealevel;temperature;humidity
32033;BME280;31720;52.638;9.216;2024-01-30T00:01:35;102508.06;;;3.49;100.00
32033;BME280;31720;52.638;9.216;2024-01-30T00:04:36;102508.06;;;3.48;100.00
32033;BME280;31720;52.638;9.216;2024-01-30T00:07:37;102507.19;;;3.44;100.00
32033;BME280;31720;52.638;9.216;2024-01-30T00:10:40;102491.63;;;3.46;100.00
32033;BME280;31720;52.638;9.216;2024-01-30T00:13:41;102500.25;;;3.42;100.00
32033;BME280;31720;52.638;9.216;2024-01-30T00:16:43;102494.19;;;3.38;100.00
32033;BME280;31720;52.638;9.216;2024-01-30T00:19:45;102495.03;;;3.39;100.00
32033;BME280;31720;52.638;9.216;2024-01-30T00:22:46;102495.91;;;3.39;100.00
32033;BME280;31720;52.638;9.216;2024-01-30T00:25:49;102492.44;;;3.39;100.00
32033;BME280;31720;52.638;9.216;2024-01-30T00:28:51;102493.31;;;3.38;100.00
32033;BME280;31720;52.638;9.216;2024-01-30T00:31:52;102490.75;;;3.45;100.00
32033;BME280;31720;52.638;9.216;2024-01-30T00:34:53;102491.63;;;3.47;100.00
32033;BME280;31720;52.638;9.216;2024-01-30T00:37:55;102499.41;;;3.49;100.00
32033;BME280;31720;52.638;9.216;2024-01-30T00:40:58;102503.75;;;3.48;100.00
32033;BME280;31720;52.638;9.216;2024-01-30T00:44:00;102498.53;;;3.44;100.00
32033;BME280;31720;52.638;9.216;2024-01-30T00:47:01;102499.41;;;3.41;100.00
32033;BME280;31720;52.638;9.216;2024-01-30T00:50:03;102496.78;;;3.40;100.00
32033;BME280;31720;52.638;9.216;2024-01-30T00:53:04;102499.38;;;3.38;100.00
32033;BME280;31720;52.638;9.216;2024-01-30T00:56:07;102501.97;;;3.37;100.00
32033;BME280;31720;52.638;9.216;2024-01-30T00:59:08;102495.03;;;3.40;100.00
32033;BME280;31720;52.638;9.216;2024-01-30T01:02:10;102494.16;;;3.40;100.00
32033;BME280;31720;52.638;9.216;2024-01-30T01:05:11;102497.63;;;3.39;100.00
32033;BME280;31720;52.638;9.216;2024-01-30T01:08:12;102497.63;;;3.39;100.00
32033;BME280;31720;52.638;9.216;2024-01-30T01:11:16;102499.38;;;3.37;100.00
32033;BME280;31720;52.638;9.216;2024-01-30T01:14:17;102506.31;;;3.39;100.00
32033;BME280;31720;52.638;9.216;2024-01-30T01:17:19;102510.63;;;3.40;100.00
32033;BME280;31720;52.638;9.216;2024-01-30T01:20:20;102505.44;;;3.39;100.00
32033;BME280;31720;52.638;9.216;2024-01-30T01:23:22;102497.63;;;3.36;100.00
32033;BME280;31720;52.638;9.216;2024-01-30T01:26:24;102498.50;;;3.36;100.00
32033;BME280;31720;52.638;9.216;2024-01-30T01:29:26;102495.91;;;3.36;100.00
32033;BME280;31720;52.638;9.216;2024-01-30T01:32:28;102495.06;;;3.49;100.00
32033;BME280;31720;52.638;9.216;2024-01-30T01:35:30;102494.22;;;3.47;100.00
32033;BME280;31720;52.638;9.216;2024-01-30T01:38:31;102482.97;;;3.47;100.00
32033;BME280;31720;52.638;9.216;2024-01-30T01:41:34;102482.09;;;3.48;100.00
32033;BME280;31720;52.638;9.216;2024-01-30T01:44:35;102485.56;;;3.50;100.00
32033;BME280;31720;52.638;9.216;2024-01-30T01:47:37;102479.47;;;3.48;100.00
32033;BME280;31720;52.638;9.216;2024-01-30T01:50:39;102477.75;;;3.47;100.00
32033;BME280;31720;52.638;9.216;2024-01-30T01:53:40;102475.16;;;3.47;100.00
32033;BME280;31720;52.638;9.216;2024-01-30T01:56:43;102468.25;;;3.50;100.00
32033;BME280;31720;52.638;9.216;2024-01-30T01:59:45;102472.56;;;3.53;100.00
32033;BME280;31720;52.638;9.216;2024-01-30T02:02:46;102459.59;;;3.56;100.00
32033;BME280;31720;52.638;9.216;2024-01-30T02:05:49;102463.06;;;3.56;100.00
32033;BME280;31720;52.638;9.216;2024-01-30T02:08:51;102456.13;;;3.59;100.00
32033;BME280;31720;52.638;9.216;2024-01-30T02:11:54;102458.72;;;3.59;100.00
32033;BME280;31720;52.638;9.216;2024-01-30T02:14:56;102443.13;;;3.57;100.00
32033;BME280;31720;52.638;9.216;2024-01-30T02:17:58;102438.81;;;3.54;100.00
32033;BME280;31720;52.638;9.216;2024-01-30T02:21:04;102431.00;;;3.56;100.00
32033;BME280;31720;52.638;9.216;2024-01-30T02:24:06;102433.59;;;3.56;100.00
32033;BME280;31720;52.638;9.216;2024-01-30T02:27:07;102430.97;;;3.53;100.00
32033;BME280;31720;52.638;9.216;2024-01-30T02:30:09;102433.59;;;3.54;100.00
32033;BME280;31720;52.638;9.216;2024-01-30T02:33:11;102427.53;;;3.55;100.00
32033;BME280;31720;52.638;9.216;2024-01-30T02:36:14;102430.13;;;3.59;100.00
32033;BME280;31720;52.638;9.216;2024-01-30T02:39:15;102427.56;;;3.65;100.00
32033;BME280;31720;52.638;9.216;2024-01-30T02:42:17;102430.16;;;3.65;100.00
32033;BME280;31720;52.638;9.216;2024-01-30T02:45:18;102416.31;;;3.64;100.00
32033;BME280;31720;52.638;9.216;2024-01-30T02:48:19;102424.09;;;3.61;100.00
32033;BME280;31720;52.638;9.216;2024-01-30T02:51:22;102415.41;;;3.61;100.00
32033;BME280;31720;52.638;9.216;2024-01-30T02:54:23;102414.53;;;3.59;100.00
32033;BME280;31720;52.638;9.216;2024-01-30T02:57:25;102406.72;;;3.59;100.00
32033;BME280;31720;52.638;9.216;2024-01-30T03:00:26;102407.63;;;3.56;100.00
32033;BME280;31720;52.638;9.216;2024-01-30T03:03:27;102406.75;;;3.51;100.00
32033;BME280;31720;52.638;9.216;2024-01-30T03:06:30;102404.13;;;3.48;100.00
32033;BME280;31720;52.638;9.216;2024-01-30T03:09:31;102408.47;;;3.46;100.00
32033;BME280;31720;52.638;9.216;2024-01-30T03:12:33;102409.28;;;3.40;100.00
32033;BME280;31720;52.638;9.216;2024-01-30T03:15:34;102404.97;;;3.38;100.00
32033;BME280;31720;52.638;9.216;2024-01-30T03:18:36;102389.34;;;3.33;100.00
32033;BME280;31720;52.638;9.216;2024-01-30T03:21:38;102387.59;;;3.30;100.00
32033;BME280;31720;52.638;9.216;2024-01-30T03:24:40;102387.63;;;3.27;100.00
32033;BME280;31720;52.638;9.216;2024-01-30T03:27:41;102392.78;;;3.26;100.00
32033;BME280;31720;52.638;9.216;2024-01-30T03:30:42;102385.88;;;3.25;100.00
32033;BME280;31720;52.638;9.216;2024-01-30T03:33:44;102387.59;;;3.24;100.00
32033;BME280;31720;52.638;9.216;2024-01-30T03:36:46;102376.28;;;3.18;100.00
32033;BME280;31720;52.638;9.216;2024-01-30T03:39:48;102376.31;;;3.16;100.00
32033;BME280;31720;52.638;9.216;2024-01-30T03:42:49;102384.09;;;3.12;100.00
32033;BME280;31720;52.638;9.216;2024-01-30T03:45:50;102378.88;;;3.12;100.00
32033;BME280;31720;52.638;9.216;2024-01-30T03:48:52;102384.06;;;3.07;100.00
32033;BME280;31720;52.638;9.216;2024-01-30T03:51:54;102384.03;;;3.04;100.00
32033;BME280;31720;52.638;9.216;2024-01-30T03:54:56;102381.44;;;3.01;100.00
32033;BME280;31720;52.638;9.216;2024-01-30T03:57:57;102382.28;;;2.98;100.00
32033;BME280;31720;52.638;9.216;2024-01-30T04:00:58;102379.69;;;2.95;100.00
32033;BME280;31720;52.638;9.216;2024-01-30T04:04:00;102373.63;;;2.99;100.00
32033;BME280;31720;52.638;9.216;2024-01-30T04:07:03;102374.47;;;2.92;100.00
32033;BME280;31720;52.638;9.216;2024-01-30T04:10:05;102374.50;;;2.95;100.00
32033;BME280;31720;52.638;9.216;2024-01-30T04:13:06;102374.50;;;2.97;100.00
32033;BME280;31720;52.638;9.216;2024-01-30T04:16:08;102373.66;;;3.02;100.00
32033;BME280;31720;52.638;9.216;2024-01-30T04:19:09;102374.53;;;3.08;100.00
32033;BME280;31720;52.638;9.216;2024-01-30T04:22:12;102367.63;;;3.07;100.00
32033;BME280;31720;52.638;9.216;2024-01-30T04:25:13;102369.31;;;3.03;100.00
32033;BME280;31720;52.638;9.216;2024-01-30T04:28:15;102370.22;;;3.05;100.00
32033;BME280;31720;52.638;9.216;2024-01-30T04:31:16;102368.44;;;3.04;100.00
32033;BME280;31720;52.638;9.216;2024-01-30T04:34:17;102371.09;;;3.05;100.00
32033;BME280;31720;52.638;9.216;2024-01-30T04:37:20;102363.28;;;3.09;100.00
32033;BME280;31720;52.638;9.216;2024-01-30T04:40:21;102366.78;;;3.09;100.00
32033;BME280;31720;52.638;9.216;2024-01-30T04:43:23;102368.50;;;3.10;100.00
32033;BME280;31720;52.638;9.216;2024-01-30T04:46:24;102366.78;;;3.14;100.00
32033;BME280;31720;52.638;9.216;2024-01-30T04:49:25;102360.69;;;3.13;100.00
32033;BME280;31720;52.638;9.216;2024-01-30T04:52:28;102368.50;;;3.13;100.00
32033;BME280;31720;52.638;9.216;2024-01-30T04:55:29;102366.78;;;3.14;100.00
32033;BME280;31720;52.638;9.216;2024-01-30T04:58:31;102371.97;;;3.17;100.00
32033;BME280;31720;52.638;9.216;2024-01-30T05:01:32;102365.94;;;3.19;100.00
32033;BME280;31720;52.638;9.216;2024-01-30T05:04:33;102360.72;;;3.21;100.00
32033;BME280;31720;52.638;9.216;2024-01-30T05:07:36;102360.72;;;3.21;100.00
32033;BME280;31720;52.638;9.216;2024-01-30T05:10:38;102344.28;;;3.19;100.00
32033;BME280;31720;52.638;9.216;2024-01-30T05:13:39;102352.09;;;3.23;100.00
32033;BME280;31720;52.638;9.216;2024-01-30T05:16:40;102346.00;;;3.21;100.00
32033;BME280;31720;52.638;9.216;2024-01-30T05:19:43;102351.19;;;3.21;100.00
32033;BME280;31720;52.638;9.216;2024-01-30T05:22:46;102351.19;;;3.21;100.00
32033;BME280;31720;52.638;9.216;2024-01-30T05:25:47;102353.81;;;3.20;100.00
32033;BME280;31720;52.638;9.216;2024-01-30T05:28:48;102351.19;;;3.21;100.00
32033;BME280;31720;52.638;9.216;2024-01-30T05:31:50;102358.13;;;3.21;100.00
32033;BME280;31720;52.638;9.216;2024-01-30T05:34:51;102354.69;;;3.20;100.00
32033;BME280;31720;52.638;9.216;2024-01-30T05:37:54;102357.25;;;3.14;100.00
32033;BME280;31720;52.638;9.216;2024-01-30T05:40:55;102355.50;;;3.13;100.00
32033;BME280;31720;52.638;9.216;2024-01-30T05:43:58;102348.59;;;3.14;100.00
32033;BME280;31720;52.638;9.216;2024-01-30T05:46:59;102344.25;;;3.13;100.00
32033;BME280;31720;52.638;9.216;2024-01-30T05:50:00;102340.81;;;3.14;100.00
32033;BME280;31720;52.638;9.216;2024-01-30T05:53:03;102346.00;;;3.14;100.00
32033;BME280;31720;52.638;9.216;2024-01-30T05:56:05;102341.66;;;3.17;100.00
32033;BME280;31720;52.638;9.216;2024-01-30T05:59:06;102344.28;;;3.19;100.00
32033;BME280;31720;52.638;9.216;2024-01-30T06:02:08;102337.38;;;3.24;100.00
32033;BME280;31720;52.638;9.216;2024-01-30T06:05:09;102334.75;;;3.25;100.00
32033;BME280;31720;52.638;9.216;2024-01-30T06:08:12;102333.91;;;3.31;100.00
32033;BME280;31720;52.638;9.216;2024-01-30T06:11:14;102333.06;;;3.37;100.00
32033;BME280;31720;52.638;9.216;2024-01-30T06:14:15;102338.25;;;3.38;100.00
32033;BME280;31720;52.638;9.216;2024-01-30T06:17:16;102340.00;;;3.44;100.00
32033;BME280;31720;52.638;9.216;2024-01-30T06:20:18;102333.94;;;3.43;100.00
32033;BME280;31720;52.638;9.216;2024-01-30T06:23:21;102337.41;;;3.44;100.00
32033;BME280;31720;52.638;9.216;2024-01-30T06:26:22;102333.97;;;3.46;100.00
32033;BME280;31720;52.638;9.216;2024-01-30T06:29:24;102332.22;;;3.48;100.00
32033;BME280;31720;52.638;9.216;2024-01-30T06:32:26;102332.22;;;3.48;100.00
32033;BME280;31720;52.638;9.216;2024-01-30T06:35:28;102333.09;;;3.47;100.00
32033;BME280;31720;52.638;9.216;2024-01-30T06:38:31;102323.53;;;3.49;100.00
32033;BME280;31720;52.638;9.216;2024-01-30T06:41:32;102339.16;;;3.51;100.00
32033;BME280;31720;52.638;9.216;2024-01-30T06:44:34;102333.94;;;3.54;100.00
32033;BME280;31720;52.638;9.216;2024-01-30T06:47:35;102335.69;;;3.52;100.00
32033;BME280;31720;52.638;9.216;2024-01-30T06:50:36;102336.53;;;3.54;100.00
32033;BME280;31720;52.638;9.216;2024-01-30T06:53:39;102346.06;;;3.53;100.00
32033;BME280;31720;52.638;9.216;2024-01-30T06:56:41;102350.44;;;3.54;100.00
32033;BME280;31720;52.638;9.216;2024-01-30T06:59:42;102353.88;;;3.56;100.00
32033;BME280;31720;52.638;9.216;2024-01-30T07:02:44;102350.44;;;3.61;100.00
32033;BME280;31720;52.638;9.216;2024-01-30T07:05:45;102350.44;;;3.59;100.00
32033;BME280;31720;52.638;9.216;2024-01-30T07:08:48;102346.09;;;3.61;100.00
32033;BME280;31720;52.638;9.216;2024-01-30T07:11:50;102345.22;;;3.61;100.00
32033;BME280;31720;52.638;9.216;2024-01-30T07:14:51;102347.84;;;3.64;100.00
32033;BME280;31720;52.638;9.216;2024-01-30T07:17:52;102339.19;;;3.65;100.00
32033;BME280;31720;52.638;9.216;2024-01-30T07:20:54;102337.44;;;3.67;100.00
32033;BME280;31720;52.638;9.216;2024-01-30T07:23:56;102340.03;;;3.74;100.00
32033;BME280;31720;52.638;9.216;2024-01-30T07:26:58;102337.44;;;3.79;100.00
32033;BME280;31720;52.638;9.216;2024-01-30T07:29:59;102330.50;;;3.84;100.00
32033;BME280;31720;52.638;9.216;2024-01-30T07:33:00;102339.16;;;3.89;100.00
32033;BME280;31720;52.638;9.216;2024-01-30T07:36:02;102333.09;;;3.95;100.00
32033;BME280;31720;52.638;9.216;2024-01-30T07:39:05;102331.38;;;4.01;100.00
32033;BME280;31720;52.638;9.216;2024-01-30T07:42:06;102328.78;;;4.04;100.00
32033;BME280;31720;52.638;9.216;2024-01-30T07:45:09;102331.38;;;4.11;100.00
32033;BME280;31720;52.638;9.216;2024-01-30T07:48:10;102333.09;;;4.24;100.00
32033;BME280;31720;52.638;9.216;2024-01-30T07:51:12;102319.19;;;4.34;100.00
32033;BME280;31720;52.638;9.216;2024-01-30T07:54:14;102323.50;;;4.43;100.00
32033;BME280;31720;52.638;9.216;2024-01-30T07:57:16;102326.91;;;4.58;100.00
32033;BME280;31720;52.638;9.216;2024-01-30T08:00:18;102332.06;;;4.72;100.00
32033;BME280;31720;52.638;9.216;2024-01-30T08:03:19;102324.25;;;4.83;100.00
32033;BME280;31720;52.638;9.216;2024-01-30T08:06:21;102325.06;;;4.90;100.00
32033;BME280;31720;52.638;9.216;2024-01-30T08:09:23;102329.38;;;4.97;100.00
32033;BME280;31720;52.638;9.216;2024-01-30T08:12:24;102325.88;;;5.02;100.00
32033;BME280;31720;52.638;9.216;2024-01-30T08:15:26;102318.91;;;5.07;100.00
32033;BME280;31720;52.638;9.216;2024-01-30T08:18:27;102312.81;;;5.12;100.00
32033;BME280;31720;52.638;9.216;2024-01-30T08:21:28;102316.28;;;5.12;100.00
32033;BME280;31720;52.638;9.216;2024-01-30T08:24:31;102322.31;;;5.20;100.00
32033;BME280;31720;52.638;9.216;2024-01-30T08:27:33;102310.13;;;5.24;100.00
32033;BME280;31720;52.638;9.216;2024-01-30T08:30:35;102316.19;;;5.32;100.00
32033;BME280;31720;52.638;9.216;2024-01-30T08:33:36;102319.59;;;5.39;100.00
32033;BME280;31720;52.638;9.216;2024-01-30T08:36:38;102312.59;;;5.44;100.00
32033;BME280;31720;52.638;9.216;2024-01-30T08:39:40;102315.22;;;5.45;100.00
32033;BME280;31720;52.638;9.216;2024-01-30T08:42:42;102308.22;;;5.49;100.00
32033;BME280;31720;52.638;9.216;2024-01-30T08:45:43;102312.53;;;5.53;100.00
32033;BME280;31720;52.638;9.216;2024-01-30T08:48:46;102304.69;;;5.59;100.00
32033;BME280;31720;52.638;9.216;2024-01-30T08:51:47;102302.03;;;5.65;100.00
32033;BME280;31720;52.638;9.216;2024-01-30T08:54:51;102297.63;;;5.70;100.00
32033;BME280;31720;52.638;9.216;2024-01-30T08:57:53;102301.94;;;5.76;100.00
32033;BME280;31720;52.638;9.216;2024-01-30T09:00:54;102306.22;;;5.83;100.00
32033;BME280;31720;52.638;9.216;2024-01-30T09:03:55;102311.38;;;5.91;100.00
32033;BME280;31720;52.638;9.216;2024-01-30T09:06:57;102308.75;;;5.97;100.00
32033;BME280;31720;52.638;9.216;2024-01-30T09:09:59;102316.50;;;6.03;100.00
32033;BME280;31720;52.638;9.216;2024-01-30T09:13:01;102313.00;;;6.05;100.00
32033;BME280;31720;52.638;9.216;2024-01-30T09:16:02;102314.69;;;6.14;100.00
32033;BME280;31720;52.638;9.216;2024-01-30T09:19:04;102312.94;;;6.15;100.00
32033;BME280;31720;52.638;9.216;2024-01-30T09:22:05;102315.47;;;6.21;100.00
32033;BME280;31720;52.638;9.216;2024-01-30T09:25:08;102307.63;;;6.24;100.00
32033;BME280;31720;52.638;9.216;2024-01-30T09:28:10;102311.00;;;6.33;100.00
32033;BME280;31720;52.638;9.216;2024-01-30T09:31:11;102307.50;;;6.36;100.00
32033;BME280;31720;52.638;9.216;2024-01-30T09:34:13;102310.84;;;6.47;100.00
32033;BME280;31720;52.638;9.216;2024-01-30T09:37:14;102316.75;;;6.61;100.00
32033;BME280;31720;52.638;9.216;2024-01-30T09:40:19;102314.97;;;6.68;100.00
32033;BME280;31720;52.638;9.216;2024-01-30T09:43:22;102318.34;;;6.75;100.00
32033;BME280;31720;52.638;9.216;2024-01-30T09:46:26;102316.56;;;6.81;100.00
32033;BME280;31720;52.638;9.216;2024-01-30T09:49:29;102307.63;;;6.96;100.00
32033;BME280;31720;52.638;9.216;2024-01-30T09:52:30;102305.72;;;7.07;100.00
32033;BME280;31720;52.638;9.216;2024-01-30T09:55:35;102310.97;;;7.07;100.00
32033;BME280;31720;52.638;9.216;2024-01-30T09:58:37;102303.88;;;7.16;100.00
32033;BME280;31720;52.638;9.216;2024-01-30T10:01:39;102306.31;;;7.26;100.00
32033;BME280;31720;52.638;9.216;2024-01-30T10:04:41;102309.75;;;7.33;100.00
32033;BME280;31720;52.638;9.216;2024-01-30T10:07:50;102309.69;;;7.34;100.00
32033;BME280;31720;52.638;9.216;2024-01-30T10:10:53;102307.03;;;7.41;100.00
32033;BME280;31720;52.638;9.216;2024-01-30T10:13:54;102303.47;;;7.43;100.00
32033;BME280;31720;52.638;9.216;2024-01-30T10:16:55;102298.16;;;7.48;100.00
32033;BME280;31720;52.638;9.216;2024-01-30T10:19:58;102299.88;;;7.49;100.00
32033;BME280;31720;52.638;9.216;2024-01-30T10:22:59;102302.38;;;7.58;100.00
32033;BME280;31720;52.638;9.216;2024-01-30T10:26:02;102300.56;;;7.63;100.00
32033;BME280;31720;52.638;9.216;2024-01-30T10:29:04;102298.63;;;7.74;100.00
32033;BME280;31720;52.638;9.216;2024-01-30T10:32:06;102297.59;;;7.83;100.00
32033;BME280;31720;52.638;9.216;2024-01-30T10:35:07;102295.66;;;7.96;100.00
32033;BME280;31720;52.638;9.216;2024-01-30T10:38:11;102297.25;;;8.04;100.00
32033;BME280;31720;52.638;9.216;2024-01-30T10:41:19;102292.88;;;8.03;100.00
32033;BME280;31720;52.638;9.216;2024-01-30T10:44:27;102295.31;;;8.14;100.00
32033;BME280;31720;52.638;9.216;2024-01-30T10:47:34;102289.00;;;8.24;100.00
32033;BME280;31720;52.638;9.216;2024-01-30T10:50:36;102286.31;;;8.29;100.00
32033;BME280;31720;52.638;9.216;2024-01-30T10:53:38;102284.41;;;8.35;100.00
32033;BME280;31720;52.638;9.216;2024-01-30T10:56:42;102281.66;;;8.45;100.00
32033;BME280;31720;52.638;9.216;2024-01-30T10:59:44;102282.47;;;8.48;100.00
32033;BME280;31720;52.638;9.216;2024-01-30T11:02:47;102280.69;;;8.49;100.00
32033;BME280;31720;52.638;9.216;2024-01-30T11:05:49;102267.34;;;8.61;100.00
32033;BME280;31720;52.638;9.216;2024-01-30T11:09:00;102273.25;;;8.72;100.00
32033;BME280;31720;52.638;9.216;2024-01-30T11:12:04;102276.50;;;8.83;100.00
32033;BME280;31720;52.638;9.216;2024-01-30T11:15:07;102266.59;;;8.96;100.00
32033;BME280;31720;52.638;9.216;2024-01-30T11:18:09;102274.22;;;9.08;100.00
32033;BME280;31720;52.638;9.216;2024-01-30T11:21:13;102267.84;;;9.19;100.00
32033;BME280;31720;52.638;9.216;2024-01-30T11:24:15;102264.16;;;9.27;100.00
32033;BME280;31720;52.638;9.216;2024-01-30T11:27:18;102264.91;;;9.31;100.00
32033;BME280;31720;52.638;9.216;2024-01-30T11:30:23;102263.06;;;9.36;100.00
32033;BME280;31720;52.638;9.216;2024-01-30T11:33:29;102262.81;;;9.47;100.00
32033;BME280;31720;52.638;9.216;2024-01-30T11:36:31;102257.41;;;9.53;100.00
32033;BME280;31720;52.638;9.216;2024-01-30T11:39:37;102251.78;;;9.68;100.00
32033;BME280;31720;52.638;9.216;2024-01-30T11:42:41;102237.69;;;9.72;100.00
32033;BME280;31720;52.638;9.216;2024-01-30T11:45:43;102239.91;;;9.87;100.00
32033;BME280;31720;52.638;9.216;2024-01-30T11:48:45;102244.72;;;10.04;100.00
32033;BME280;31720;52.638;9.216;2024-01-30T11:51:46;102248.66;;;10.19;100.00
32033;BME280;31720;52.638;9.216;2024-01-30T11:54:49;102257.19;;;10.29;100.00
32033;BME280;31720;52.638;9.216;2024-01-30T11:57:54;102256.00;;;10.40;100.00
32033;BME280;31720;52.638;9.216;2024-01-30T12:00:56;102253.00;;;10.53;100.00
32033;BME280;31720;52.638;9.216;2024-01-30T12:03:59;102242.66;;;10.47;100.00
32033;BME280;31720;52.638;9.216;2024-01-30T12:07:01;102247.00;;;10.49;100.00
32033;BME280;31720;52.638;9.216;2024-01-30T12:10:03;102253.25;;;10.45;100.00
32033;BME280;31720;52.638;9.216;2024-01-30T12:13:07;102249.84;;;10.40;100.00
32033;BME280;31720;52.638;9.216;2024-01-30T12:16:08;102250.16;;;10.29;100.00
32033;BME280;31720;52.638;9.216;2024-01-30T12:19:10;102249.59;;;10.18;100.00
32033;BME280;31720;52.638;9.216;2024-01-30T12:22:11;102247.09;;;10.13;100.00
32033;BME280;31720;52.638;9.216;2024-01-30T12:25:14;102256.75;;;10.11;100.00
32033;BME280;31720;52.638;9.216;2024-01-30T12:28:17;102261.88;;;10.16;100.00
32033;BME280;31720;52.638;9.216;2024-01-30T12:31:25;102258.19;;;10.25;100.00
32033;BME280;31720;52.638;9.216;2024-01-30T12:34:26;102263.25;;;10.31;100.00
32033;BME280;31720;52.638;9.216;2024-01-30T12:37:28;102255.47;;;10.28;100.00
32033;BME280;31720;52.638;9.216;2024-01-30T12:40:29;102253.00;;;10.20;100.00
32033;BME280;31720;52.638;9.216;2024-01-30T12:43:36;102255.56;;;10.23;100.00
32033;BME280;31720;52.638;9.216;2024-01-30T12:46:37;102251.88;;;10.30;100.00
32033;BME280;31720;52.638;9.216;2024-01-30T12:49:38;102250.94;;;10.33;100.00
32033;BME280;31720;52.638;9.216;2024-01-30T12:52:40;102251.84;;;10.32;100.00
32033;BME280;31720;52.638;9.216;2024-01-30T12:55:41;102251.00;;;10.31;100.00
32033;BME280;31720;52.638;9.216;2024-01-30T12:58:44;102249.75;;;10.45;100.00
32033;BME280;31720;52.638;9.216;2024-01-30T13:01:45;102252.97;;;10.54;100.00
32033;BME280;31720;52.638;9.216;2024-01-30T13:04:46;102253.19;;;10.47;100.00
32033;BME280;31720;52.638;9.216;2024-01-30T13:07:48;102262.84;;;10.46;100.00
32033;BME280;31720;52.638;9.216;2024-01-30T13:10:49;102269.69;;;10.52;100.00
32033;BME280;31720;52.638;9.216;2024-01-30T13:13:52;102270.00;;;10.71;100.00
32033;BME280;31720;52.638;9.216;2024-01-30T13:16:53;102265.31;;;10.80;100.00
32033;BME280;31720;52.638;9.216;2024-01-30T13:19:55;102271.00;;;10.96;100.00
32033;BME280;31720;52.638;9.216;2024-01-30T13:22:56;102261.94;;;10.77;100.00
32033;BME280;31720;52.638;9.216;2024-01-30T13:25:58;102270.97;;;10.68;100.00
32033;BME280;31720;52.638;9.216;2024-01-30T13:29:00;102268.28;;;10.70;100.00
32033;BME280;31720;52.638;9.216;2024-01-30T13:32:03;102268.72;;;10.84;100.00
32033;BME280;31720;52.638;9.216;2024-01-30T13:35:04;102269.16;;;10.70;100.00
32033;BME280;31720;52.638;9.216;2024-01-30T13:38:06;102265.00;;;10.63;100.00
32033;BME280;31720;52.638;9.216;2024-01-30T13:41:07;102257.91;;;10.65;100.00
32033;BME280;31720;52.638;9.216;2024-01-30T13:44:09;102256.34;;;10.58;100.00
32033;BME280;31720;52.638;9.216;2024-01-30T13:47:11;102262.31;;;10.64;100.00
32033;BME280;31720;52.638;9.216;2024-01-30T13:50:12;102253.84;;;10.53;100.00
32033;BME280;31720;52.638;9.216;2024-01-30T13:53:16;102254.91;;;10.48;100.00
32033;BME280;31720;52.638;9.216;2024-01-30T13:59:27;102267.22;;;10.46;100.00
32033;BME280;31720;52.638;9.216;2024-01-30T14:02:28;102258.63;;;10.40;100.00
32033;BME280;31720;52.638;9.216;2024-01-30T14:05:29;102264.50;;;10.49;100.00
32033;BME280;31720;52.638;9.216;2024-01-30T14:08:31;102270.91;;;10.70;100.00
32033;BME280;31720;52.638;9.216;2024-01-30T14:11:33;102262.69;;;10.80;100.00
32033;BME280;31720;52.638;9.216;2024-01-30T14:14:35;102262.75;;;10.79;100.00
32033;BME280;31720;52.638;9.216;2024-01-30T14:17:37;102264.66;;;10.74;100.00
32033;BME280;31720;52.638;9.216;2024-01-30T14:20:38;102268.34;;;10.68;100.00
32033;BME280;31720;52.638;9.216;2024-01-30T14:23:39;102275.09;;;10.77;100.00
32033;BME280;31720;52.638;9.216;2024-01-30T14:26:40;102272.06;;;10.90;100.00
32033;BME280;31720;52.638;9.216;2024-01-30T14:29:44;102264.16;;;10.90;100.00
32033;BME280;31720;52.638;9.216;2024-01-30T14:32:45;102267.03;;;10.83;100.00
32033;BME280;31720;52.638;9.216;2024-01-30T14:35:47;102269.31;;;10.93;100.00
32033;BME280;31720;52.638;9.216;2024-01-30T14:38:49;102271.00;;;10.96;100.00
32033;BME280;31720;52.638;9.216;2024-01-30T14:41:50;102267.47;;;10.97;100.00
32033;BME280;31720;52.638;9.216;2024-01-30T14:44:53;102273.44;;;11.02;100.00
32033;BME280;31720;52.638;9.216;2024-01-30T14:47:54;102279.84;;;10.93;100.00
32033;BME280;31720;52.638;9.216;2024-01-30T14:50:56;102269.50;;;10.87;100.00
32033;BME280;31720;52.638;9.216;2024-01-30T14:53:58;102266.88;;;10.87;100.00
32033;BME280;31720;52.638;9.216;2024-01-30T14:57:00;102276.69;;;10.82;100.00
32033;BME280;31720;52.638;9.216;2024-01-30T15:00:03;102273.19;;;10.82;100.00
32033;BME280;31720;52.638;9.216;2024-01-30T15:03:05;102274.25;;;10.75;100.00
32033;BME280;31720;52.638;9.216;2024-01-30T15:06:08;102278.75;;;10.71;100.00
32033;BME280;31720;52.638;9.216;2024-01-30T15:09:09;102287.19;;;10.82;100.00
32033;BME280;31720;52.638;9.216;2024-01-30T15:12:11;102292.13;;;10.93;100.00
32033;BME280;31720;52.638;9.216;2024-01-30T15:15:13;102293.09;;;10.90;100.00
32033;BME280;31720;52.638;9.216;2024-01-30T15:18:15;102285.34;;;10.86;100.00
32033;BME280;31720;52.638;9.216;2024-01-30T15:21:16;102284.44;;;10.87;100.00
32033;BME280;31720;52.638;9.216;2024-01-30T15:24:20;102292.09;;;10.95;100.00
32033;BME280;31720;52.638;9.216;2024-01-30T15:27:24;102290.06;;;11.04;100.00
32033;BME280;31720;52.638;9.216;2024-01-30T15:30:27;102298.09;;;11.00;100.00
32033;BME280;31720;52.638;9.216;2024-01-30T15:33:28;102299.72;;;11.04;100.00
32033;BME280;31720;52.638;9.216;2024-01-30T15:36:30;102299.16;;;10.92;100.00
32033;BME280;31720;52.638;9.216;2024-01-30T15:39:32;102304.50;;;10.89;100.00
32033;BME280;31720;52.638;9.216;2024-01-30T15:42:33;102301.00;;;10.90;100.00
32033;BME280;31720;52.638;9.216;2024-01-30T15:45:36;102303.63;;;10.90;100.00
32033;BME280;31720;52.638;9.216;2024-01-30T15:48:38;102307.25;;;10.86;100.00
32033;BME280;31720;52.638;9.216;2024-01-30T15:51:39;102306.25;;;10.90;100.00